Time;durP1;ratioP1;P1;durP2;ratioP2;P2;SDS_P1;SDS_P2;PMS_P1;PMS_P2;Temp;Humidity;BMP_temperature;BMP_pressure;BME280_temperature;BME280_humidity;BME280_pressure;Samples;Min_cycle;Max_cycle;Signal;HPM_P1;HPM_P2
2022/04/15 00:00:06;;;;;;;8.33;6.07;;;14.80;59.80;;;;;;5093325;28;20600;-64
2022/04/15 00:02:33;;;;;;;9.00;5.70;;;14.80;59.90;;;;;;5094527;28;20925;-64
2022/04/15 00:05:00;;;;;;;9.93;6.10;;;14.90;59.80;;;;;;5094314;28;20461;-64
2022/04/15 00:07:28;;;;;;;8.80;6.00;;;14.80;59.80;;;;;;5094426;28;20514;-65
2022/04/15 00:09:55;;;;;;;7.77;6.00;;;14.70;60.30;;;;;;5094192;28;20475;-66
2022/04/15 00:12:28;;;;;;;9.17;6.33;;;14.70;60.30;;;;;;5094551;28;20902;-64
2022/04/15 00:14:56;;;;;;;9.30;6.80;;;14.70;60.80;;;;;;5093536;28;20596;-64
2022/04/15 00:17:23;;;;;;;13.50;7.80;;;14.70;60.90;;;;;;5094699;28;20478;-65
2022/04/15 00:19:50;;;;;;;16.47;7.00;;;14.70;60.60;;;;;;5093916;28;20518;-65
2022/04/15 00:22:17;;;;;;;8.43;6.17;;;14.70;60.90;;;;;;5094285;28;20431;-65
2022/04/15 00:24:46;;;;;;;9.30;6.77;;;14.70;60.80;;;;;;5094353;28;20522;-65
2022/04/15 00:27:14;;;;;;;9.03;6.30;;;14.70;60.90;;;;;;5093392;28;20829;-65
2022/04/15 00:29:40;;;;;;;15.07;8.83;;;14.70;60.50;;;;;;5094381;28;20475;-65
2022/04/15 00:32:08;;;;;;;14.93;8.43;;;14.80;60.60;;;;;;5093787;28;20471;-64
2022/04/15 00:34:35;;;;;;;8.50;7.07;;;14.80;60.60;;;;;;5094156;28;20489;-64
2022/04/15 00:37:02;;;;;;;11.40;7.73;;;14.80;60.60;;;;;;5093566;28;20439;-65
2022/04/15 00:39:30;;;;;;;17.00;14.10;;;14.80;61.10;;;;;;5094223;28;20514;-64
2022/04/15 00:41:59;;;;;;;30.13;22.97;;;14.80;60.90;;;;;;5093476;28;20488;-64
2022/04/15 00:44:26;;;;;;;13.90;9.33;;;14.80;61.30;;;;;;5093440;28;20470;-66
2022/04/15 00:46:53;;;;;;;9.97;7.33;;;14.80;61.50;;;;;;5094088;28;20838;-64
2022/04/15 00:49:20;;;;;;;8.87;7.17;;;14.80;61.80;;;;;;5093344;28;20892;-64
2022/04/15 00:51:48;;;;;;;9.63;7.57;;;14.80;61.70;;;;;;5093981;28;20474;-64
2022/04/15 00:54:20;;;;;;;7.67;6.40;;;14.70;63.60;;;;;;5093185;28;20470;-65
2022/04/15 00:56:50;;;;;;;13.77;7.53;;;14.60;63.70;;;;;;5093904;28;20442;-65
2022/04/15 00:59:21;;;;;;;9.13;7.20;;;14.60;63.50;;;;;;5093181;28;20529;-64
2022/04/15 01:01:49;;;;;;;10.83;6.87;;;14.60;64.70;;;;;;5093867;28;20529;-64
2022/04/15 01:04:18;;;;;;;9.53;7.53;;;14.60;64.90;;;;;;5092954;28;20522;-65
2022/04/15 01:06:48;;;;;;;10.67;7.43;;;14.50;65.30;;;;;;5093570;28;20524;-63
2022/04/15 01:09:17;;;;;;;11.87;6.97;;;14.60;65.70;;;;;;5092074;28;20447;-66
2022/04/15 01:11:45;;;;;;;13.13;8.70;;;14.60;65.60;;;;;;5093381;28;20438;-64
2022/04/15 01:14:14;;;;;;;12.60;8.60;;;14.60;66.20;;;;;;5092756;28;20474;-64
2022/04/15 01:16:43;;;;;;;11.27;9.43;;;14.50;67.90;;;;;;5093333;28;20546;-64
2022/04/15 01:19:09;;;;;;;8.90;7.93;;;14.50;68.70;;;;;;5092482;28;20438;-64
2022/04/15 01:21:39;;;;;;;12.37;8.80;;;14.50;69.80;;;;;;5093515;28;20519;-64
2022/04/15 01:24:08;;;;;;;15.07;9.57;;;14.60;69.40;;;;;;5092512;28;20447;-64
2022/04/15 01:26:35;;;;;;;15.57;9.83;;;14.70;68.50;;;;;;5093243;28;20551;-64
2022/04/15 01:29:04;;;;;;;11.40;10.20;;;14.60;68.80;;;;;;5093022;28;20466;-64
2022/04/15 01:31:31;;;;;;;16.00;12.07;;;14.60;70.40;;;;;;5085863;28;20435;-64
2022/04/15 01:34:00;;;;;;;16.67;14.67;;;14.60;72.50;;;;;;5091210;28;20435;-65
2022/04/15 01:36:27;;;;;;;17.97;15.70;;;14.60;73.90;;;;;;5091816;28;20439;-65
2022/04/15 01:38:57;;;;;;;19.70;11.43;;;14.60;74.60;;;;;;5092702;28;20435;-64
2022/04/15 01:41:25;;;;;;;12.50;10.50;;;14.60;75.90;;;;;;5092132;28;20436;-64
2022/04/15 01:43:53;;;;;;;14.50;11.17;;;14.70;75.40;;;;;;5092996;28;20578;-64
2022/04/15 01:46:20;;;;;;;11.73;10.00;;;14.70;75.00;;;;;;5092158;28;20526;-64
2022/04/15 01:48:47;;;;;;;13.50;9.53;;;14.80;75.60;;;;;;5092932;28;20522;-64
2022/04/15 01:51:14;;;;;;;12.60;10.23;;;14.80;76.10;;;;;;5091116;28;20440;-64
2022/04/15 01:53:41;;;;;;;12.83;10.57;;;14.70;76.20;;;;;;5092954;28;20522;-64
2022/04/15 01:56:08;;;;;;;12.07;10.70;;;14.70;78.10;;;;;;5092086;28;20518;-64
2022/04/15 01:58:36;;;;;;;15.40;11.70;;;14.70;79.20;;;;;;5092711;28;20471;-65
2022/04/15 02:01:03;;;;;;;13.73;12.00;;;14.60;79.80;;;;;;5091816;28;20527;-64
2022/04/15 02:03:30;;;;;;;15.60;11.90;;;14.60;79.70;;;;;;5092616;28;20435;-65
2022/04/15 02:05:57;;;;;;;14.90;11.40;;;14.60;80.90;;;;;;5092005;28;20482;-64
2022/04/15 02:08:24;;;;;;;15.30;12.13;;;14.50;82.20;;;;;;5092635;28;20519;-64
2022/04/15 02:10:51;;;;;;;13.60;11.50;;;14.50;80.50;;;;;;5091859;28;20549;-64
2022/04/15 02:13:18;;;;;;;13.73;11.70;;;14.50;81.40;;;;;;5092466;28;20996;-64
2022/04/15 02:15:46;;;;;;;15.10;12.70;;;14.50;81.80;;;;;;5090870;28;20489;-64
2022/04/15 02:18:13;;;;;;;16.30;14.17;;;14.50;82.40;;;;;;5092482;28;20513;-64
2022/04/15 02:20:40;;;;;;;16.47;13.20;;;14.50;82.80;;;;;;5091793;28;20973;-64
2022/04/15 02:23:07;;;;;;;14.90;13.03;;;14.60;82.90;;;;;;5089163;28;20481;-64
2022/04/15 02:25:34;;;;;;;16.10;13.83;;;14.60;83.20;;;;;;5092092;28;20522;-64
2022/04/15 02:28:01;;;;;;;16.13;13.20;;;14.70;83.70;;;;;;5090685;28;20501;-64
2022/04/15 02:30:28;;;;;;;14.60;12.47;;;14.80;83.90;;;;;;5091897;28;20850;-65
2022/04/15 02:32:56;;;;;;;23.63;16.90;;;14.80;84.40;;;;;;5091825;28;20530;-64
2022/04/15 02:35:23;;;;;;;21.67;16.43;;;14.80;84.90;;;;;;5091149;28;20474;-65
2022/04/15 02:37:50;;;;;;;17.67;15.77;;;14.80;85.00;;;;;;5092237;28;20523;-64
2022/04/15 02:40:17;;;;;;;19.23;17.23;;;14.80;85.20;;;;;;5090431;28;20729;-65
2022/04/15 02:42:44;;;;;;;19.30;16.53;;;14.80;87.80;;;;;;5091931;28;20541;-64
2022/04/15 02:45:12;;;;;;;20.97;15.50;;;14.70;88.90;;;;;;5092779;28;20514;-64
2022/04/15 02:47:40;;;;;;;17.63;14.73;;;14.50;89.90;;;;;;5095944;28;20490;-65
2022/04/15 02:50:09;;;;;;;19.47;16.43;;;14.40;90.90;;;;;;5095912;28;20780;-67
2022/04/15 02:52:36;;;;;;;25.17;16.60;;;14.40;91.00;;;;;;5075663;28;20442;-64
2022/04/15 02:55:04;;;;;;;18.30;16.40;;;14.20;92.40;;;;;;5075754;28;20872;-64
2022/04/15 02:57:31;;;;;;;18.53;16.40;;;14.20;92.90;;;;;;5094729;28;20990;-64
2022/04/15 02:59:58;;;;;;;20.83;17.50;;;14.10;93.40;;;;;;5095937;28;20929;-65
2022/04/15 03:02:25;;;;;;;18.93;16.90;;;14.10;94.00;;;;;;5095361;28;20557;-64
2022/04/15 03:04:52;;;;;;;22.83;17.63;;;14.00;94.60;;;;;;5096002;28;20533;-64
2022/04/15 03:07:21;;;;;;;25.67;19.88;;;14.00;95.40;;;;;;5095171;28;20549;-64
2022/04/15 03:09:48;;;;;;;27.15;19.83;;;13.90;96.50;;;;;;5095070;28;20624;-64
2022/04/15 03:12:14;;;;;;;20.87;18.67;;;13.90;96.90;;;;;;5095703;28;20272;-64
2022/04/15 03:14:42;;;;;;;21.03;18.20;;;13.90;97.20;;;;;;5094916;28;20514;-64
2022/04/15 03:17:11;;;;;;;21.67;19.05;;;13.90;97.10;;;;;;5094315;28;20462;-65
2022/04/15 03:19:38;;;;;;;21.53;17.70;;;14.00;97.20;;;;;;5094955;28;20548;-64
2022/04/15 03:22:06;;;;;;;18.65;16.65;;;14.00;97.40;;;;;;5095729;28;20521;-64
2022/04/15 03:24:34;;;;;;;22.60;17.67;;;14.00;97.30;;;;;;5094893;28;20185;-64
2022/04/15 03:27:01;;;;;;;23.10;19.40;;;14.10;96.80;;;;;;5095277;28;20470;-64
2022/04/15 03:29:28;;;;;;;23.70;17.15;;;14.20;96.40;;;;;;5094986;28;20800;-64
2022/04/15 03:31:55;;;;;;;20.60;17.70;;;14.20;95.70;;;;;;5095054;28;20189;-66
2022/04/15 03:34:22;;;;;;;19.47;17.47;;;14.30;95.50;;;;;;5094665;28;20518;-64
2022/04/15 03:36:49;;;;;;;21.30;16.27;;;14.30;95.10;;;;;;5095260;28;20534;-64
2022/04/15 03:39:15;;;;;;;20.43;17.73;;;14.40;95.00;;;;;;5094522;28;20517;-64
2022/04/15 03:41:44;;;;;;;19.50;17.33;;;14.40;94.60;;;;;;5093418;28;20482;-64
2022/04/15 03:44:11;;;;;;;21.33;18.07;;;14.50;94.70;;;;;;5095212;28;20580;-64
2022/04/15 03:46:38;;;;;;;20.37;17.33;;;14.40;94.50;;;;;;5094673;28;20436;-63
2022/04/15 03:49:05;;;;;;;20.67;16.30;;;14.50;94.40;;;;;;5094989;28;20528;-64
2022/04/15 03:51:32;;;;;;;19.27;16.40;;;14.50;94.10;;;;;;5094289;28;20477;-64
2022/04/15 03:53:59;;;;;;;18.50;16.03;;;14.50;94.00;;;;;;5095020;28;20526;-64
2022/04/15 03:56:26;;;;;;;19.63;17.33;;;14.50;94.30;;;;;;5093545;28;20470;-64
2022/04/15 03:58:54;;;;;;;19.00;15.70;;;14.50;94.50;;;;;;5093299;28;20443;-66
2022/04/15 04:01:21;;;;;;;23.40;17.80;;;14.50;94.40;;;;;;5094278;28;20431;-64
2022/04/15 04:03:48;;;;;;;20.40;17.20;;;14.60;94.30;;;;;;5095085;28;21461;-64
2022/04/15 04:06:15;;;;;;;19.77;17.73;;;14.60;94.30;;;;;;5094274;28;20455;-64
2022/04/15 04:08:49;;;;;;;23.00;17.53;;;14.60;94.50;;;;;;5094854;28;20482;-64
2022/04/15 04:11:16;;;;;;;21.20;17.17;;;14.60;94.40;;;;;;5094546;28;20442;-64
2022/04/15 04:13:43;;;;;;;19.30;16.83;;;14.60;94.30;;;;;;5094628;28;21008;-64
2022/04/15 04:16:12;;;;;;;20.63;18.63;;;14.60;94.50;;;;;;5094469;28;20848;-64
2022/04/15 04:18:39;;;;;;;22.10;17.50;;;14.60;94.20;;;;;;5094949;28;20929;-64
2022/04/15 04:21:06;;;;;;;19.70;17.53;;;14.60;94.50;;;;;;5094535;28;20545;-64
2022/04/15 04:23:33;;;;;;;18.50;16.60;;;14.60;94.30;;;;;;5095115;28;20518;-66
2022/04/15 04:26:00;;;;;;;21.60;16.97;;;14.60;94.30;;;;;;5094007;28;20481;-64
2022/04/15 04:28:28;;;;;;;22.70;17.53;;;14.60;94.40;;;;;;5094677;28;20989;-65
2022/04/15 04:30:55;;;;;;;20.67;18.47;;;14.60;94.40;;;;;;5094046;28;20471;-64
2022/04/15 04:33:23;;;;;;;23.97;18.43;;;14.70;94.50;;;;;;5094923;28;20470;-63
2022/04/15 04:35:50;;;;;;;20.27;18.07;;;14.70;94.40;;;;;;5092325;28;20542;-64
2022/04/15 04:38:18;;;;;;;21.33;19.23;;;14.70;94.10;;;;;;5094324;28;20866;-64
2022/04/15 04:40:46;;;;;;;22.37;20.07;;;14.70;94.30;;;;;;5093677;28;20467;-64
2022/04/15 04:43:13;;;;;;;22.53;18.80;;;14.80;94.60;;;;;;5094415;28;20509;-64
2022/04/15 04:45:40;;;;;;;18.93;16.83;;;14.70;94.60;;;;;;5093854;28;20514;-64
2022/04/15 04:48:08;;;;;;;21.40;19.20;;;14.70;94.50;;;;;;5094403;28;20537;-64
2022/04/15 04:50:36;;;;;;;20.50;18.30;;;14.70;94.50;;;;;;5093418;28;20855;-64
2022/04/15 04:53:04;;;;;;;23.10;19.43;;;14.80;94.40;;;;;;5093534;28;20526;-64
2022/04/15 04:55:30;;;;;;;20.17;18.10;;;14.80;94.30;;;;;;5094239;28;20471;-64
2022/04/15 04:57:57;;;;;;;20.97;18.90;;;14.80;94.30;;;;;;5093937;28;20526;-65
2022/04/15 05:00:25;;;;;;;20.67;18.50;;;14.80;94.10;;;;;;5073830;28;20832;-64
2022/04/15 05:02:52;;;;;;;20.03;17.87;;;14.80;94.30;;;;;;5073593;28;20436;-64
2022/04/15 05:05:18;;;;;;;22.27;19.87;;;14.80;94.60;;;;;;5092769;28;20514;-64
2022/04/15 05:07:47;;;;;;;20.93;18.70;;;14.80;94.50;;;;;;5092752;28;20510;-64
2022/04/15 05:10:14;;;;;;;21.13;18.73;;;14.70;94.20;;;;;;5093232;28;20585;-64
2022/04/15 05:12:41;;;;;;;21.27;17.57;;;14.70;94.00;;;;;;5092975;28;20467;-64
2022/04/15 05:15:09;;;;;;;21.70;19.10;;;14.70;94.10;;;;;;5093709;28;20490;-64
2022/04/15 05:17:35;;;;;;;24.23;18.63;;;14.70;94.50;;;;;;5093031;28;20977;-64
2022/04/15 05:20:02;;;;;;;21.23;18.47;;;14.70;94.90;;;;;;5094144;28;20514;-64
2022/04/15 05:22:29;;;;;;;26.83;19.83;;;14.70;95.00;;;;;;5093195;28;20510;-65
2022/04/15 05:24:58;;;;;;;20.47;18.47;;;14.70;95.10;;;;;;5093439;28;20534;-64
2022/04/15 05:27:24;;;;;;;20.80;18.60;;;14.80;95.20;;;;;;5093040;28;20518;-66
2022/04/15 05:29:51;;;;;;;20.70;18.50;;;14.70;95.30;;;;;;5093824;28;20820;-64
2022/04/15 05:32:20;;;;;;;23.20;20.00;;;14.60;95.40;;;;;;5092850;28;20514;-64
2022/04/15 05:34:47;;;;;;;23.70;19.60;;;14.60;95.90;;;;;;5093564;28;20439;-64
2022/04/15 05:37:14;;;;;;;27.03;23.07;;;14.60;96.20;;;;;;5092764;28;20482;-64
2022/04/15 05:39:41;;;;;;;23.43;20.70;;;14.60;96.10;;;;;;5093574;28;20504;-64
2022/04/15 05:42:10;;;;;;;24.03;19.60;;;14.60;95.80;;;;;;5091776;28;20447;-64
2022/04/15 05:44:38;;;;;;;20.87;18.43;;;14.70;95.70;;;;;;5092572;28;20438;-65
2022/04/15 05:47:06;;;;;;;22.63;19.90;;;14.70;95.50;;;;;;5093004;28;20435;-66
2022/04/15 05:49:34;;;;;;;22.47;20.17;;;14.70;95.60;;;;;;5092338;28;20483;-65
2022/04/15 05:52:01;;;;;;;26.10;20.83;;;14.70;95.90;;;;;;5093160;28;20492;-64
2022/04/15 05:54:28;;;;;;;26.90;22.17;;;14.70;95.30;;;;;;5092211;28;20446;-64
2022/04/15 05:56:55;;;;;;;25.37;19.53;;;14.70;95.30;;;;;;5093112;28;20862;-64
2022/04/15 05:59:24;;;;;;;21.07;18.60;;;14.70;95.50;;;;;;5092163;28;20427;-64
2022/04/15 06:01:51;;;;;;;26.00;22.00;;;14.70;95.50;;;;;;5092510;28;20435;-64
2022/04/15 06:04:19;;;;;;;28.30;21.77;;;14.80;95.30;;;;;;5092591;28;20470;-64
2022/04/15 06:06:47;;;;;;;21.07;18.97;;;14.80;95.10;;;;;;5092839;28;20493;-64
2022/04/15 06:09:14;;;;;;;25.20;20.90;;;14.80;95.40;;;;;;5092098;28;20479;-64
2022/04/15 06:11:42;;;;;;;23.73;21.03;;;14.80;95.40;;;;;;5092758;28;20439;-64
2022/04/15 06:14:09;;;;;;;24.53;20.13;;;14.90;95.50;;;;;;5092233;28;20522;-64
2022/04/15 06:16:42;;;;;;;23.87;19.50;;;14.90;95.70;;;;;;5092404;28;20462;-64
2022/04/15 06:19:09;;;;;;;23.47;21.10;;;14.90;95.80;;;;;;5091451;28;20431;-65
2022/04/15 06:21:36;;;;;;;26.40;19.60;;;14.80;95.70;;;;;;5091580;28;20785;-64
2022/04/15 06:24:06;;;;;;;21.97;19.33;;;14.90;96.00;;;;;;5092537;28;20457;-65
2022/04/15 06:26:33;;;;;;;27.70;18.27;;;14.90;96.60;;;;;;5092200;28;20497;-66
2022/04/15 06:29:00;;;;;;;22.63;17.87;;;14.90;96.40;;;;;;5092619;28;20483;-64
2022/04/15 06:31:28;;;;;;;23.97;17.87;;;14.90;96.30;;;;;;5091959;28;20439;-64
2022/04/15 06:33:57;;;;;;;21.20;18.60;;;15.00;96.20;;;;;;5092347;28;20431;-64
2022/04/15 06:36:24;;;;;;;19.43;17.40;;;15.10;96.10;;;;;;5092265;28;20492;-64
2022/04/15 06:38:52;;;;;;;21.10;18.27;;;15.10;96.00;;;;;;5091924;28;20500;-64
2022/04/15 06:41:19;;;;;;;24.20;18.67;;;15.20;95.70;;;;;;5089510;28;20467;-64
2022/04/15 06:43:46;;;;;;;18.80;16.60;;;15.30;95.60;;;;;;5090753;28;20439;-64
2022/04/15 06:46:13;;;;;;;28.97;18.00;;;15.30;95.50;;;;;;5091364;28;20443;-64
2022/04/15 06:48:40;;;;;;;20.43;15.83;;;15.40;95.40;;;;;;5090797;28;20567;-64
2022/04/15 06:51:09;;;;;;;23.93;19.37;;;15.40;95.10;;;;;;5091345;28;20435;-65
2022/04/15 06:53:36;;;;;;;23.63;21.07;;;15.50;95.30;;;;;;5091612;28;20431;-69
2022/04/15 06:56:03;;;;;;;24.43;18.20;;;15.50;95.20;;;;;;5092048;28;20786;-64
2022/04/15 06:58:30;;;;;;;20.80;18.20;;;15.60;95.00;;;;;;5091727;28;20466;-65
2022/04/15 07:00:58;;;;;;;25.50;19.57;;;15.70;95.30;;;;;;5091412;28;20435;-65
2022/04/15 07:03:25;;;;;;;31.33;19.73;;;15.80;95.30;;;;;;5092122;28;20480;-64
2022/04/15 07:05:52;;;;;;;25.70;18.30;;;15.90;95.50;;;;;;5091571;28;20443;-64
2022/04/15 07:08:20;;;;;;;26.50;21.73;;;16.00;94.70;;;;;;5092096;28;20500;-64
2022/04/15 07:10:47;;;;;;;30.17;19.60;;;16.10;94.70;;;;;;5088669;28;20443;-64
2022/04/15 07:13:15;;;;;;;27.90;21.77;;;16.20;94.20;;;;;;5090448;28;20440;-65
2022/04/15 07:15:42;;;;;;;31.97;23.20;;;16.40;94.30;;;;;;5091161;28;21014;-64
2022/04/15 07:18:09;;;;;;;32.50;23.30;;;16.50;94.00;;;;;;5090364;28;20483;-65
2022/04/15 07:20:37;;;;;;;31.87;22.40;;;16.60;93.60;;;;;;5091216;28;20534;-65
2022/04/15 07:23:04;;;;;;;28.63;20.90;;;16.60;92.80;;;;;;5090838;28;20934;-65
2022/04/15 07:25:34;;;;;;;29.07;22.37;;;16.60;92.60;;;;;;5091277;28;21040;-65
2022/04/15 07:28:02;;;;;;;27.67;21.13;;;16.70;92.60;;;;;;5090269;28;20441;-64
2022/04/15 07:30:29;;;;;;;27.77;22.50;;;16.70;92.60;;;;;;5091381;28;20964;-64
2022/04/15 07:32:57;;;;;;;34.20;21.13;;;16.70;92.50;;;;;;5093059;28;20529;-64
2022/04/15 07:35:24;;;;;;;28.33;24.03;;;16.80;92.60;;;;;;5094569;28;20518;-65
2022/04/15 07:37:51;;;;;;;32.87;25.17;;;16.80;92.60;;;;;;5093940;28;20435;-64
2022/04/15 07:40:19;;;;;;;31.77;25.10;;;16.80;92.80;;;;;;5094517;28;20439;-64
2022/04/15 07:42:47;;;;;;;34.43;27.03;;;16.90;92.80;;;;;;5093209;28;20431;-64
2022/04/15 07:45:14;;;;;;;32.57;25.40;;;17.00;92.60;;;;;;5091686;28;20478;-64
2022/04/15 07:47:42;;;;;;;27.70;24.33;;;17.10;92.40;;;;;;5094657;28;20447;-65
2022/04/15 07:50:10;;;;;;;28.90;23.30;;;17.20;92.40;;;;;;5093599;28;20474;-66
2022/04/15 07:52:38;;;;;;;26.83;22.20;;;17.30;91.70;;;;;;5093535;28;20431;-66
2022/04/15 07:55:06;;;;;;;28.80;23.03;;;17.30;91.20;;;;;;5094972;28;20846;-64
2022/04/15 07:57:34;;;;;;;28.70;24.50;;;17.40;90.70;;;;;;5091486;28;20946;-65
2022/04/15 08:00:03;;;;;;;27.30;23.90;;;17.50;90.70;;;;;;5095261;28;20442;-64
2022/04/15 08:02:30;;;;;;;27.00;24.17;;;17.60;90.30;;;;;;5094934;28;20529;-65
2022/04/15 08:04:57;;;;;;;25.50;22.70;;;17.70;88.80;;;;;;5095526;28;20449;-64
2022/04/15 08:07:24;;;;;;;28.80;22.90;;;17.70;88.30;;;;;;5095222;28;20492;-64
2022/04/15 08:09:51;;;;;;;26.37;23.30;;;17.60;87.10;;;;;;5095122;28;20569;-64
2022/04/15 08:12:18;;;;;;;24.97;22.27;;;17.60;88.30;;;;;;5094575;28;20446;-64
2022/04/15 08:14:45;;;;;;;25.70;22.90;;;17.60;87.70;;;;;;5094928;28;21009;-64
2022/04/15 08:17:14;;;;;;;22.97;20.57;;;18.00;90.00;;;;;;5093704;28;20467;-64
2022/04/15 08:19:41;;;;;;;21.93;19.73;;;18.40;85.80;;;;;;5094335;28;20897;-65
2022/04/15 08:22:09;;;;;;;21.67;19.30;;;18.50;82.60;;;;;;5094463;28;20484;-64
2022/04/15 08:24:39;;;;;;;22.50;19.50;;;18.60;81.60;;;;;;5095086;28;20521;-65
2022/04/15 08:27:06;;;;;;;21.90;19.20;;;18.80;82.10;;;;;;5094884;28;20439;-64
2022/04/15 08:29:35;;;;;;;22.77;20.53;;;18.90;82.80;;;;;;5094731;28;20880;-65
2022/04/15 08:32:02;;;;;;;26.27;19.80;;;19.00;81.10;;;;;;5095100;28;20504;-65
2022/04/15 08:34:31;;;;;;;26.00;20.30;;;19.00;80.20;;;;;;5087656;28;20435;-65
2022/04/15 08:36:59;;;;;;;21.07;18.80;;;19.10;79.00;;;;;;5090159;28;20533;-65
2022/04/15 08:39:25;;;;;;;20.77;18.57;;;19.10;78.90;;;;;;5093193;28;20500;-64
2022/04/15 08:41:55;;;;;;;20.63;18.50;;;19.20;78.30;;;;;;5093743;28;20527;-64
2022/04/15 08:44:23;;;;;;;23.47;19.07;;;19.30;75.80;;;;;;5092946;28;20424;-65
2022/04/15 08:46:51;;;;;;;22.23;19.97;;;19.40;73.10;;;;;;5090470;28;20439;-64
2022/04/15 08:49:22;;;;;;;21.30;19.00;;;19.30;74.40;;;;;;5094543;28;20941;-65
2022/04/15 08:51:51;;;;;;;24.00;18.87;;;19.30;75.30;;;;;;5092903;28;20458;-65
2022/04/15 08:54:19;;;;;;;24.47;21.40;;;19.40;77.30;;;;;;5093871;28;20435;-64
2022/04/15 08:56:49;;;;;;;21.13;18.87;;;19.50;76.10;;;;;;5093287;28;20522;-65
2022/04/15 08:59:16;;;;;;;19.17;17.20;;;19.60;75.70;;;;;;5094052;28;20435;-64
2022/04/15 09:01:43;;;;;;;24.70;18.40;;;19.70;74.50;;;;;;5093155;28;20440;-64
2022/04/15 09:04:10;;;;;;;19.67;17.57;;;19.70;73.60;;;;;;5093737;28;20457;-65
2022/04/15 09:06:38;;;;;;;18.83;16.80;;;19.80;73.20;;;;;;5093231;28;20447;-65
2022/04/15 09:09:11;;;;;;;18.80;16.90;;;19.80;71.90;;;;;;5079415;28;20476;-64
2022/04/15 09:11:40;;;;;;;20.90;16.80;;;19.70;70.30;;;;;;5088390;28;20457;-64
2022/04/15 09:14:10;;;;;;;18.33;16.43;;;19.70;71.40;;;;;;5093100;28;20439;-66
2022/04/15 09:16:41;;;;;;;16.67;14.97;;;19.70;69.60;;;;;;5092654;28;20466;-65
2022/04/15 09:19:09;;;;;;;17.00;15.30;;;19.60;69.20;;;;;;5092944;28;20856;-65
2022/04/15 09:21:37;;;;;;;16.00;14.37;;;19.60;68.40;;;;;;5093595;28;20837;-65
2022/04/15 09:24:07;;;;;;;17.13;15.33;;;19.70;67.40;;;;;;5092883;28;20845;-65
2022/04/15 09:26:36;;;;;;;20.63;17.20;;;19.70;67.60;;;;;;5093045;28;20433;-65
2022/04/15 09:29:03;;;;;;;19.37;15.43;;;20.10;72.80;;;;;;5092753;28;20866;-64
2022/04/15 09:31:30;;;;;;;15.60;14.00;;;20.80;69.80;;;;;;5092968;28;20467;-65
2022/04/15 09:33:59;;;;;;;15.23;13.73;;;21.50;68.70;;;;;;5085730;28;20522;-65
2022/04/15 09:36:29;;;;;;;19.67;13.87;;;22.00;64.00;;;;;;5092053;28;20435;-65
2022/04/15 09:39:00;;;;;;;14.67;13.17;;;22.30;60.10;;;;;;5092714;28;20496;-65
2022/04/15 09:41:31;;;;;;;15.23;13.60;;;22.40;57.60;;;;;;5093175;28;20773;-65
2022/04/15 09:44:00;;;;;;;14.33;12.27;;;22.40;55.30;;;;;;5088079;28;20431;-64
2022/04/15 09:46:30;;;;;;;16.57;14.63;;;22.30;55.30;;;;;;5093141;28;20492;-65
2022/04/15 09:49:03;;;;;;;15.77;13.63;;;22.20;55.90;;;;;;5092165;28;20450;-65
2022/04/15 09:51:38;;;;;;;15.43;13.83;;;22.10;55.70;;;;;;5092496;28;20453;-65
2022/04/15 09:54:10;;;;;;;15.83;13.27;;;22.00;57.40;;;;;;5072336;28;20802;-66
2022/04/15 09:56:43;;;;;;;14.50;13.03;;;22.10;55.60;;;;;;5072629;28;20923;-65
2022/04/15 09:59:12;;;;;;;15.30;12.20;;;22.10;56.00;;;;;;5072733;28;20439;-65
2022/04/15 10:01:44;;;;;;;17.67;14.57;;;22.20;56.50;;;;;;5072337;28;20795;-65
2022/04/15 10:04:11;;;;;;;15.80;13.20;;;22.40;56.50;;;;;;5092729;28;20435;-65
2022/04/15 10:06:40;;;;;;;14.43;12.33;;;22.80;64.80;;;;;;5092329;28;20431;-66
2022/04/15 10:09:10;;;;;;;12.00;10.80;;;24.00;61.80;;;;;;5092348;28;20431;-65
2022/04/15 10:11:42;;;;;;;10.50;9.47;;;25.00;51.90;;;;;;5092789;28;20438;-65
2022/04/15 10:14:10;;;;;;;11.00;8.90;;;25.80;50.60;;;;;;5092089;28;20825;-65
2022/04/15 10:16:39;;;;;;;10.23;9.10;;;26.10;42.10;;;;;;5090556;28;20459;-63
2022/04/15 10:19:07;;;;;;;9.77;8.87;;;26.10;40.40;;;;;;5092933;28;20462;-63
2022/04/15 10:21:37;;;;;;;11.70;9.83;;;26.50;42.20;;;;;;5088749;28;20527;-64
2022/04/15 10:24:08;;;;;;;10.77;9.67;;;27.30;42.70;;;;;;5103115;28;20494;-63
2022/04/15 10:26:36;;;;;;;9.47;7.97;;;27.80;41.80;;;;;;5097553;28;20446;-63
2022/04/15 10:29:06;;;;;;;8.97;8.10;;;28.00;36.90;;;;;;5105333;28;20504;-63
2022/04/15 10:31:42;;;;;;;10.13;9.10;;;27.80;36.00;;;;;;5090580;28;20466;-62
2022/04/15 10:34:11;;;;;;;10.00;9.00;;;27.40;34.10;;;;;;5092625;28;20843;-62
2022/04/15 10:36:38;;;;;;;8.50;7.70;;;26.80;32.40;;;;;;5092538;28;20796;-63
2022/04/15 10:39:17;;;;;;;11.17;10.07;;;26.20;33.20;;;;;;5092292;28;20436;-63
2022/04/15 10:41:58;;;;;;;9.53;8.50;;;25.60;35.00;;;;;;5111402;28;20514;-62
2022/04/15 10:44:28;;;;;;;9.50;8.50;;;25.20;36.10;;;;;;5092526;28;20459;-62
2022/04/15 10:46:59;;;;;;;10.80;8.30;;;24.80;35.20;;;;;;5092582;28;20435;-62
2022/04/15 10:49:39;;;;;;;9.47;8.47;;;24.50;35.70;;;;;;5090933;28;20457;-62
2022/04/15 10:52:18;;;;;;;8.63;7.40;;;24.30;37.00;;;;;;5091148;28;20423;-62
2022/04/15 10:54:48;;;;;;;8.63;7.83;;;24.10;38.40;;;;;;5090896;28;20431;-62
2022/04/15 10:57:17;;;;;;;12.43;8.33;;;23.70;37.10;;;;;;5090137;28;20435;-63
2022/04/15 11:02:42;;;;;;;13.83;8.40;;;23.50;38.50;;;;;;5090665;28;20418;-62
2022/04/15 11:05:11;;;;;;;9.30;8.13;;;23.50;38.30;;;;;;5090064;28;20821;-62
2022/04/15 11:07:50;;;;;;;10.43;8.90;;;23.40;37.50;;;;;;5094098;28;20518;-63
2022/04/15 11:10:40;;;;;;;9.10;8.07;;;23.50;38.30;;;;;;5093834;28;20510;-63
2022/04/15 11:13:11;;;;;;;10.77;8.40;;;23.70;38.10;;;;;;5091410;28;20925;-62
2022/04/15 11:15:57;;;;;;;10.73;7.93;;;23.50;38.60;;;;;;5092621;28;20435;-63
2022/04/15 11:18:25;;;;;;;8.70;7.80;;;23.40;39.50;;;;;;5081652;28;20516;-64
2022/04/15 11:20:52;;;;;;;8.03;7.23;;;23.30;40.20;;;;;;5093965;28;20472;-62
2022/04/15 11:23:19;;;;;;;8.73;7.83;;;23.30;40.30;;;;;;5094190;28;20482;-62
2022/04/15 11:25:47;;;;;;;9.20;7.70;;;23.30;40.10;;;;;;5091587;28;20784;-62
2022/04/15 11:28:19;;;;;;;10.00;8.30;;;23.30;40.60;;;;;;5093722;28;20462;-62
2022/04/15 11:30:49;;;;;;;9.47;8.00;;;23.30;41.20;;;;;;5090713;28;20834;-62
2022/04/15 11:33:18;;;;;;;10.40;8.07;;;23.30;41.40;;;;;;5070103;28;20457;-62
2022/04/15 11:35:45;;;;;;;9.90;8.40;;;23.40;41.60;;;;;;5086051;28;20474;-63
2022/04/15 11:38:13;;;;;;;10.93;8.13;;;23.30;40.60;;;;;;5084165;28;20982;-62
2022/04/15 11:40:44;;;;;;;9.70;7.33;;;23.30;40.40;;;;;;5071559;28;20442;-68
2022/04/15 11:43:14;;;;;;;9.70;8.70;;;23.30;40.30;;;;;;5005545;28;20637;-68
2022/04/15 11:45:44;;;;;;;10.97;8.87;;;23.20;39.80;;;;;;5013785;28;20953;-68
2022/04/15 11:48:23;;;;;;;10.53;8.17;;;23.00;40.00;;;;;;5069842;28;20480;-69
2022/04/15 11:50:52;;;;;;;9.10;8.20;;;22.80;40.30;;;;;;5086756;28;20474;-64
2022/04/15 11:53:20;;;;;;;16.13;8.00;;;22.60;41.10;;;;;;5088708;28;20442;-64
2022/04/15 11:55:50;;;;;;;7.30;6.50;;;22.50;42.30;;;;;;5088775;28;20443;-63
2022/04/15 11:58:18;;;;;;;9.13;6.00;;;22.50;41.50;;;;;;5086115;28;20960;-63
2022/04/15 12:00:51;;;;;;;7.90;6.20;;;22.40;40.60;;;;;;5050156;28;20790;-65
2022/04/15 12:03:21;;;;;;;7.83;6.20;;;22.30;41.10;;;;;;5019202;28;20614;-68
2022/04/15 12:05:52;;;;;;;8.40;6.23;;;22.40;41.00;;;;;;5017907;28;20632;-68
2022/04/15 12:08:27;;;;;;;7.67;6.50;;;22.30;39.80;;;;;;4991177;28;21221;-69
2022/04/15 12:11:02;;;;;;;7.83;5.93;;;22.30;40.30;;;;;;4989428;28;21076;-69
2022/04/15 12:13:30;;;;;;;8.63;6.40;;;22.50;40.10;;;;;;5034065;28;20477;-65
2022/04/15 12:15:57;;;;;;;5.30;4.73;;;22.50;39.60;;;;;;5097633;28;20446;-62
2022/04/15 12:18:27;;;;;;;5.07;4.40;;;22.50;39.40;;;;;;5094935;28;20795;-63
2022/04/15 12:20:54;;;;;;;8.37;5.67;;;22.50;41.20;;;;;;5090414;28;20474;-67
2022/04/15 12:23:22;;;;;;;7.60;5.87;;;23.00;42.00;;;;;;5085372;28;20514;-63
2022/04/15 12:26:06;;;;;;;5.17;4.43;;;23.50;41.60;;;;;;5095676;28;21566;-62
2022/04/15 12:31:28;;;;;;;4.53;3.57;;;24.60;39.90;;;;;;5096576;28;20531;-63
2022/04/15 12:33:56;;;;;;;4.60;3.93;;;24.90;38.90;;;;;;5095568;28;20983;-62
2022/04/15 12:36:24;;;;;;;6.30;4.07;;;25.20;37.10;;;;;;5095488;28;20444;-63
2022/04/15 12:39:05;;;;;;;5.97;4.07;;;25.30;35.70;;;;;;5099567;28;20451;-63
2022/04/15 12:41:40;;;;;;;8.80;5.60;;;25.50;36.50;;;;;;5096146;28;20438;-63